sensor_id;sensor_type;location;lat;lon;timestamp;pressure;altitude;pressure_sealevel;temperature;humidity
56668;BME280;42542;48.360;10.958;2023-10-31T00:00:55;94610.75;;;10.68;100.00
56668;BME280;42542;48.360;10.958;2023-10-31T00:03:57;94609.53;;;10.64;100.00
56668;BME280;42542;48.360;10.958;2023-10-31T00:06:59;94619.38;;;10.64;100.00
56668;BME280;42542;48.360;10.958;2023-10-31T00:10:01;94630.47;;;10.61;100.00
56668;BME280;42542;48.360;10.958;2023-10-31T00:13:03;94629.84;;;10.59;100.00
56668;BME280;42542;48.360;10.958;2023-10-31T00:16:06;94626.34;;;10.58;100.00
56668;BME280;42542;48.360;10.958;2023-10-31T00:19:08;94633.75;;;10.56;100.00
56668;BME280;42542;48.360;10.958;2023-10-31T00:22:10;94634.97;;;10.53;100.00
56668;BME280;42542;48.360;10.958;2023-10-31T00:25:12;94635.38;;;10.50;100.00
56668;BME280;42542;48.360;10.958;2023-10-31T00:28:14;94644.59;;;10.48;100.00
56668;BME280;42542;48.360;10.958;2023-10-31T00:31:17;94650.56;;;10.43;100.00
56668;BME280;42542;48.360;10.958;2023-10-31T00:34:20;94652.78;;;10.40;100.00
56668;BME280;42542;48.360;10.958;2023-10-31T00:37:22;94652.16;;;10.38;100.00
56668;BME280;42542;48.360;10.958;2023-10-31T00:40:23;94647.03;;;10.36;100.00
56668;BME280;42542;48.360;10.958;2023-10-31T00:43:26;94657.69;;;10.30;100.00
56668;BME280;42542;48.360;10.958;2023-10-31T00:46:28;94647.78;;;10.24;100.00
56668;BME280;42542;48.360;10.958;2023-10-31T00:49:29;94671.03;;;10.30;100.00
56668;BME280;42542;48.360;10.958;2023-10-31T00:52:31;94673.25;;;10.26;100.00
56668;BME280;42542;48.360;10.958;2023-10-31T00:55:33;94681.66;;;10.23;100.00
56668;BME280;42542;48.360;10.958;2023-10-31T00:58:35;94674.69;;;10.22;100.00
56668;BME280;42542;48.360;10.958;2023-10-31T01:01:37;94673.66;;;10.23;100.00
56668;BME280;42542;48.360;10.958;2023-10-31T01:04:40;94664.75;;;10.16;100.00
56668;BME280;42542;48.360;10.958;2023-10-31T01:07:42;94663.31;;;10.13;100.00
56668;BME280;42542;48.360;10.958;2023-10-31T01:10:45;94667.81;;;10.13;100.00
56668;BME280;42542;48.360;10.958;2023-10-31T01:13:47;94672.16;;;10.14;100.00
56668;BME280;42542;48.360;10.958;2023-10-31T01:16:49;94663.31;;;10.13;100.00
56668;BME280;42542;48.360;10.958;2023-10-31T01:19:51;94674.00;;;10.13;100.00
56668;BME280;42542;48.360;10.958;2023-10-31T01:22:52;94669.84;;;10.11;100.00
56668;BME280;42542;48.360;10.958;2023-10-31T01:25:54;94664.53;;;10.11;100.00
56668;BME280;42542;48.360;10.958;2023-10-31T01:28:56;94672.53;;;10.11;100.00
56668;BME280;42542;48.360;10.958;2023-10-31T01:31:59;94681.56;;;10.10;100.00
56668;BME280;42542;48.360;10.958;2023-10-31T01:35:08;94686.06;;;10.09;100.00
56668;BME280;42542;48.360;10.958;2023-10-31T01:38:10;94694.28;;;10.08;100.00
56668;BME280;42542;48.360;10.958;2023-10-31T01:41:12;94689.16;;;10.06;100.00
56668;BME280;42542;48.360;10.958;2023-10-31T01:44:13;94689.16;;;10.06;100.00
56668;BME280;42542;48.360;10.958;2023-10-31T01:47:17;94689.16;;;10.06;100.00
56668;BME280;42542;48.360;10.958;2023-10-31T01:50:19;94693.84;;;10.04;100.00
56668;BME280;42542;48.360;10.958;2023-10-31T01:53:23;94698.56;;;10.02;100.00
56668;BME280;42542;48.360;10.958;2023-10-31T01:56:26;94706.97;;;9.99;100.00
56668;BME280;42542;48.360;10.958;2023-10-31T01:59:28;94707.16;;;9.98;100.00
56668;BME280;42542;48.360;10.958;2023-10-31T02:02:32;94698.13;;;9.99;100.00
56668;BME280;42542;48.360;10.958;2023-10-31T02:05:35;94705.31;;;9.98;100.00
56668;BME280;42542;48.360;10.958;2023-10-31T02:08:38;94705.69;;;9.95;100.00
56668;BME280;42542;48.360;10.958;2023-10-31T02:11:39;94712.88;;;9.95;100.00
56668;BME280;42542;48.360;10.958;2023-10-31T02:14:41;94715.53;;;9.95;100.00
56668;BME280;42542;48.360;10.958;2023-10-31T02:17:42;94715.34;;;9.96;100.00
56668;BME280;42542;48.360;10.958;2023-10-31T02:20:45;94715.75;;;9.93;100.00
56668;BME280;42542;48.360;10.958;2023-10-31T02:24:02;94718.44;;;9.93;100.00
56668;BME280;42542;48.360;10.958;2023-10-31T02:27:06;94709.97;;;9.90;100.00
56668;BME280;42542;48.360;10.958;2023-10-31T02:30:08;94710.78;;;9.90;100.00
56668;BME280;42542;48.360;10.958;2023-10-31T02:33:10;94716.78;;;9.92;100.00
56668;BME280;42542;48.360;10.958;2023-10-31T02:36:13;94719.63;;;9.91;100.00
56668;BME280;42542;48.360;10.958;2023-10-31T02:39:14;94720.47;;;9.91;100.00
56668;BME280;42542;48.360;10.958;2023-10-31T02:42:18;94733.63;;;9.93;100.00
56668;BME280;42542;48.360;10.958;2023-10-31T02:45:20;94723.31;;;9.90;100.00
56668;BME280;42542;48.360;10.958;2023-10-31T02:48:23;94722.47;;;9.89;100.00
56668;BME280;42542;48.360;10.958;2023-10-31T02:51:26;94740.97;;;9.91;100.00
56668;BME280;42542;48.360;10.958;2023-10-31T02:54:28;94734.63;;;9.92;100.00
56668;BME280;42542;48.360;10.958;2023-10-31T02:57:30;94741.81;;;9.91;100.00
56668;BME280;42542;48.360;10.958;2023-10-31T03:00:32;94752.47;;;9.91;100.00
56668;BME280;42542;48.360;10.958;2023-10-31T03:03:34;94750.81;;;9.90;100.00
56668;BME280;42542;48.360;10.958;2023-10-31T03:06:37;94740.94;;;9.84;100.00
56668;BME280;42542;48.360;10.958;2023-10-31T03:09:38;94747.75;;;9.87;100.00
56668;BME280;42542;48.360;10.958;2023-10-31T03:12:40;94754.28;;;9.84;100.00
56668;BME280;42542;48.360;10.958;2023-10-31T03:15:43;94757.97;;;9.83;100.00
56668;BME280;42542;48.360;10.958;2023-10-31T03:18:46;94756.13;;;9.84;100.00
56668;BME280;42542;48.360;10.958;2023-10-31T03:21:48;94753.81;;;9.80;100.00
56668;BME280;42542;48.360;10.958;2023-10-31T03:24:50;94759.81;;;9.83;100.00
56668;BME280;42542;48.360;10.958;2023-10-31T03:27:51;94773.31;;;9.81;100.00
56668;BME280;42542;48.360;10.958;2023-10-31T03:30:54;94782.16;;;9.82;100.00
56668;BME280;42542;48.360;10.958;2023-10-31T03:33:55;94780.31;;;9.82;100.00
56668;BME280;42542;48.360;10.958;2023-10-31T03:36:58;94793.84;;;9.80;100.00
56668;BME280;42542;48.360;10.958;2023-10-31T03:39:59;94788.72;;;9.79;100.00
56668;BME280;42542;48.360;10.958;2023-10-31T03:43:02;94783.41;;;9.79;100.00
56668;BME280;42542;48.360;10.958;2023-10-31T03:46:03;94784.22;;;9.79;100.00
56668;BME280;42542;48.360;10.958;2023-10-31T03:49:06;94783.56;;;9.77;100.00
56668;BME280;42542;48.360;10.958;2023-10-31T03:52:09;94778.88;;;9.79;100.00
56668;BME280;42542;48.360;10.958;2023-10-31T03:55:12;94780.44;;;9.74;100.00
56668;BME280;42542;48.360;10.958;2023-10-31T03:58:14;94779.44;;;9.75;100.00
56668;BME280;42542;48.360;10.958;2023-10-31T04:01:15;94773.72;;;9.78;100.00
56668;BME280;42542;48.360;10.958;2023-10-31T04:04:18;94782.09;;;9.75;100.00
56668;BME280;42542;48.360;10.958;2023-10-31T04:07:20;94783.94;;;9.74;100.00
56668;BME280;42542;48.360;10.958;2023-10-31T04:10:21;94792.13;;;9.73;100.00
56668;BME280;42542;48.360;10.958;2023-10-31T04:13:23;94788.84;;;9.71;100.00
56668;BME280;42542;48.360;10.958;2023-10-31T04:16:25;94796.69;;;9.72;100.00
56668;BME280;42542;48.360;10.958;2023-10-31T04:19:27;94787.84;;;9.72;100.00
56668;BME280;42542;48.360;10.958;2023-10-31T04:22:29;94788.84;;;9.71;100.00
56668;BME280;42542;48.360;10.958;2023-10-31T04:25:31;94787.38;;;9.68;100.00
56668;BME280;42542;48.360;10.958;2023-10-31T04:28:32;94784.06;;;9.66;100.00
56668;BME280;42542;48.360;10.958;2023-10-31T04:31:35;94800.91;;;9.67;100.00
56668;BME280;42542;48.360;10.958;2023-10-31T04:34:45;94798.06;;;9.68;100.00
56668;BME280;42542;48.360;10.958;2023-10-31T04:37:47;94791.25;;;9.66;100.00
56668;BME280;42542;48.360;10.958;2023-10-31T04:40:49;94789.41;;;9.66;100.00
56668;BME280;42542;48.360;10.958;2023-10-31T04:43:52;94795.97;;;9.64;100.00
56668;BME280;42542;48.360;10.958;2023-10-31T04:46:54;94805.00;;;9.63;100.00
56668;BME280;42542;48.360;10.958;2023-10-31T04:49:56;94813.44;;;9.66;100.00
56668;BME280;42542;48.360;10.958;2023-10-31T04:52:58;94807.66;;;9.63;100.00
56668;BME280;42542;48.360;10.958;2023-10-31T04:56:00;94814.19;;;9.60;100.00
56668;BME280;42542;48.360;10.958;2023-10-31T04:59:02;94814.84;;;9.62;100.00
56668;BME280;42542;48.360;10.958;2023-10-31T05:02:04;94815.19;;;9.59;100.00
56668;BME280;42542;48.360;10.958;2023-10-31T05:05:06;94805.75;;;9.57;100.00
56668;BME280;42542;48.360;10.958;2023-10-31T05:08:08;94815.41;;;9.58;100.00
56668;BME280;42542;48.360;10.958;2023-10-31T05:11:10;94817.63;;;9.54;100.00
56668;BME280;42542;48.360;10.958;2023-10-31T05:14:12;94813.69;;;9.50;100.00
56668;BME280;42542;48.360;10.958;2023-10-31T05:17:14;94822.97;;;9.54;100.00
56668;BME280;42542;48.360;10.958;2023-10-31T05:20:16;94820.94;;;9.56;100.00
56668;BME280;42542;48.360;10.958;2023-10-31T05:23:18;94821.13;;;9.55;100.00
56668;BME280;42542;48.360;10.958;2023-10-31T05:26:20;94817.63;;;9.54;100.00
56668;BME280;42542;48.360;10.958;2023-10-31T05:29:22;94836.28;;;9.54;100.00
56668;BME280;42542;48.360;10.958;2023-10-31T05:32:25;94841.81;;;9.53;100.00
56668;BME280;42542;48.360;10.958;2023-10-31T05:35:26;94854.31;;;9.52;100.00
56668;BME280;42542;48.360;10.958;2023-10-31T05:38:28;94859.88;;;9.51;100.00
56668;BME280;42542;48.360;10.958;2023-10-31T05:41:34;94857.38;;;9.49;100.00
56668;BME280;42542;48.360;10.958;2023-10-31T05:44:35;94856.56;;;9.49;100.00
56668;BME280;42542;48.360;10.958;2023-10-31T05:47:38;94863.72;;;9.48;100.00
56668;BME280;42542;48.360;10.958;2023-10-31T05:50:39;94878.06;;;9.47;100.00
56668;BME280;42542;48.360;10.958;2023-10-31T05:53:42;94885.25;;;9.47;100.00
56668;BME280;42542;48.360;10.958;2023-10-31T05:56:45;94873.75;;;9.46;100.00
56668;BME280;42542;48.360;10.958;2023-10-31T05:59:47;94889.94;;;9.45;100.00
56668;BME280;42542;48.360;10.958;2023-10-31T06:02:49;94892.81;;;9.43;100.00
56668;BME280;42542;48.360;10.958;2023-10-31T06:05:51;94902.06;;;9.47;100.00
56668;BME280;42542;48.360;10.958;2023-10-31T06:08:53;94897.75;;;9.46;100.00
56668;BME280;42542;48.360;10.958;2023-10-31T06:11:55;94916.59;;;9.45;100.00
56668;BME280;42542;48.360;10.958;2023-10-31T06:14:57;94915.78;;;9.44;100.00
56668;BME280;42542;48.360;10.958;2023-10-31T06:17:59;94917.16;;;9.40;100.00
56668;BME280;42542;48.360;10.958;2023-10-31T06:21:01;94919.47;;;9.43;100.00
56668;BME280;42542;48.360;10.958;2023-10-31T06:24:03;94930.97;;;9.44;100.00
56668;BME280;42542;48.360;10.958;2023-10-31T06:27:05;94933.44;;;9.45;100.00
56668;BME280;42542;48.360;10.958;2023-10-31T06:30:08;94929.09;;;9.44;100.00
56668;BME280;42542;48.360;10.958;2023-10-31T06:33:25;94920.19;;;9.37;100.00
56668;BME280;42542;48.360;10.958;2023-10-31T06:36:27;94925.81;;;9.42;100.00
56668;BME280;42542;48.360;10.958;2023-10-31T06:39:29;94936.50;;;9.42;100.00
56668;BME280;42542;48.360;10.958;2023-10-31T06:42:31;94936.66;;;9.40;100.00
56668;BME280;42542;48.360;10.958;2023-10-31T06:45:33;94942.00;;;9.40;100.00
56668;BME280;42542;48.360;10.958;2023-10-31T06:48:34;94952.66;;;9.40;100.00
56668;BME280;42542;48.360;10.958;2023-10-31T06:51:36;94954.69;;;9.38;100.00
56668;BME280;42542;48.360;10.958;2023-10-31T06:54:38;94968.69;;;9.40;100.00
56668;BME280;42542;48.360;10.958;2023-10-31T06:57:40;94954.34;;;9.42;100.00
56668;BME280;42542;48.360;10.958;2023-10-31T07:00:41;94962.34;;;9.42;100.00
56668;BME280;42542;48.360;10.958;2023-10-31T07:03:43;94978.78;;;9.45;100.00
56668;BME280;42542;48.360;10.958;2023-10-31T07:06:45;94983.28;;;9.45;100.00
56668;BME280;42542;48.360;10.958;2023-10-31T07:09:47;94980.81;;;9.43;100.00
56668;BME280;42542;48.360;10.958;2023-10-31T07:12:49;94983.28;;;9.45;100.00
56668;BME280;42542;48.360;10.958;2023-10-31T07:15:52;94990.75;;;9.49;100.00
56668;BME280;42542;48.360;10.958;2023-10-31T07:18:53;94995.44;;;9.47;100.00
56668;BME280;42542;48.360;10.958;2023-10-31T07:21:56;94996.69;;;9.51;100.00
56668;BME280;42542;48.360;10.958;2023-10-31T07:24:57;95002.03;;;9.51;100.00
56668;BME280;42542;48.360;10.958;2023-10-31T07:28:01;95004.72;;;9.51;100.00
56668;BME280;42542;48.360;10.958;2023-10-31T07:31:02;95007.00;;;9.54;100.00
56668;BME280;42542;48.360;10.958;2023-10-31T07:34:05;95016.03;;;9.53;100.00
56668;BME280;42542;48.360;10.958;2023-10-31T07:37:07;95023.69;;;9.56;100.00
56668;BME280;42542;48.360;10.958;2023-10-31T07:40:10;95028.00;;;9.57;100.00
56668;BME280;42542;48.360;10.958;2023-10-31T07:43:12;95025.50;;;9.56;100.00
56668;BME280;42542;48.360;10.958;2023-10-31T07:46:14;95009.31;;;9.57;100.00
56668;BME280;42542;48.360;10.958;2023-10-31T07:49:18;95004.81;;;9.58;100.00
56668;BME280;42542;48.360;10.958;2023-10-31T07:52:19;95008.75;;;9.62;100.00
56668;BME280;42542;48.360;10.958;2023-10-31T07:55:23;95006.28;;;9.60;100.00
56668;BME280;42542;48.360;10.958;2023-10-31T07:58:25;95002.78;;;9.60;100.00
56668;BME280;42542;48.360;10.958;2023-10-31T08:01:27;95002.94;;;9.58;100.00
56668;BME280;42542;48.360;10.958;2023-10-31T08:04:31;94994.16;;;9.58;100.00
56668;BME280;42542;48.360;10.958;2023-10-31T08:07:33;94996.00;;;9.57;100.00
56668;BME280;42542;48.360;10.958;2023-10-31T08:10:35;94991.28;;;9.59;100.00
56668;BME280;42542;48.360;10.958;2023-10-31T08:13:38;94992.09;;;9.60;100.00
56668;BME280;42542;48.360;10.958;2023-10-31T08:16:40;94994.78;;;9.60;100.00
56668;BME280;42542;48.360;10.958;2023-10-31T08:19:41;94999.75;;;9.63;100.00
56668;BME280;42542;48.360;10.958;2023-10-31T08:22:45;94992.75;;;9.62;100.00
56668;BME280;42542;48.360;10.958;2023-10-31T08:25:47;94988.06;;;9.64;100.00
56668;BME280;42542;48.360;10.958;2023-10-31T08:28:49;94992.19;;;9.66;100.00
56668;BME280;42542;48.360;10.958;2023-10-31T08:31:53;94977.84;;;9.67;100.00
56668;BME280;42542;48.360;10.958;2023-10-31T08:34:55;94992.66;;;9.70;100.00
56668;BME280;42542;48.360;10.958;2023-10-31T08:37:58;94985.66;;;9.69;100.00
56668;BME280;42542;48.360;10.958;2023-10-31T08:41:00;95000.19;;;9.66;98.39
56668;BME280;42542;48.360;10.958;2023-10-31T08:44:02;95020.81;;;9.72;99.94
56668;BME280;42542;48.360;10.958;2023-10-31T08:47:05;95024.50;;;9.71;98.78
56668;BME280;42542;48.360;10.958;2023-10-31T08:50:08;95026.78;;;9.74;98.73
56668;BME280;42542;48.360;10.958;2023-10-31T08:53:11;95036.00;;;9.72;97.38
56668;BME280;42542;48.360;10.958;2023-10-31T08:56:13;95053.28;;;9.76;98.00
56668;BME280;42542;48.360;10.958;2023-10-31T08:59:15;95047.84;;;9.69;97.47
56668;BME280;42542;48.360;10.958;2023-10-31T09:02:16;95062.13;;;9.76;97.49
56668;BME280;42542;48.360;10.958;2023-10-31T09:05:18;95063.97;;;9.76;96.47
56668;BME280;42542;48.360;10.958;2023-10-31T09:08:20;95061.28;;;9.76;97.31
56668;BME280;42542;48.360;10.958;2023-10-31T09:11:22;95071.41;;;9.80;97.10
56668;BME280;42542;48.360;10.958;2023-10-31T09:14:24;95079.03;;;9.84;97.22
56668;BME280;42542;48.360;10.958;2023-10-31T09:17:26;95092.22;;;9.85;97.83
56668;BME280;42542;48.360;10.958;2023-10-31T09:20:28;95104.16;;;9.89;96.91
56668;BME280;42542;48.360;10.958;2023-10-31T09:23:31;95111.16;;;9.90;96.85
56668;BME280;42542;48.360;10.958;2023-10-31T09:26:33;95103.81;;;9.92;96.50
56668;BME280;42542;48.360;10.958;2023-10-31T09:29:35;95115.94;;;9.95;96.19
56668;BME280;42542;48.360;10.958;2023-10-31T09:32:37;95122.56;;;9.99;96.64
56668;BME280;42542;48.360;10.958;2023-10-31T09:35:39;95133.53;;;10.04;96.53
56668;BME280;42542;48.360;10.958;2023-10-31T09:38:41;95140.59;;;10.11;97.62
56668;BME280;42542;48.360;10.958;2023-10-31T09:41:43;95143.09;;;10.13;96.55
56668;BME280;42542;48.360;10.958;2023-10-31T09:44:46;95140.72;;;10.18;96.80
56668;BME280;42542;48.360;10.958;2023-10-31T09:47:48;95151.88;;;10.22;96.62
56668;BME280;42542;48.360;10.958;2023-10-31T09:50:51;95152.13;;;10.27;96.40
56668;BME280;42542;48.360;10.958;2023-10-31T09:53:54;95149.09;;;10.30;96.00
56668;BME280;42542;48.360;10.958;2023-10-31T09:56:57;95154.25;;;10.31;95.16
56668;BME280;42542;48.360;10.958;2023-10-31T09:59:59;95157.19;;;10.36;94.94
56668;BME280;42542;48.360;10.958;2023-10-31T10:03:01;95152.13;;;10.41;95.05
56668;BME280;42542;48.360;10.958;2023-10-31T10:06:04;95149.44;;;10.41;95.58
56668;BME280;42542;48.360;10.958;2023-10-31T10:09:06;95145.94;;;10.41;94.19
56668;BME280;42542;48.360;10.958;2023-10-31T10:12:13;95150.09;;;10.43;93.49
56668;BME280;42542;48.360;10.958;2023-10-31T10:15:15;95146.78;;;10.41;93.39
56668;BME280;42542;48.360;10.958;2023-10-31T10:18:28;95155.50;;;10.50;94.39
56668;BME280;42542;48.360;10.958;2023-10-31T10:21:46;95165.44;;;10.56;94.64
56668;BME280;42542;48.360;10.958;2023-10-31T10:24:48;95164.63;;;10.55;92.00
56668;BME280;42542;48.360;10.958;2023-10-31T10:27:52;95152.28;;;10.54;92.72
56668;BME280;42542;48.360;10.958;2023-10-31T10:30:53;95140.22;;;10.59;92.84
56668;BME280;42542;48.360;10.958;2023-10-31T10:33:56;95151.50;;;10.61;91.72
56668;BME280;42542;48.360;10.958;2023-10-31T10:36:58;95141.66;;;10.61;91.54
56668;BME280;42542;48.360;10.958;2023-10-31T10:40:00;95160.25;;;10.69;92.01
56668;BME280;42542;48.360;10.958;2023-10-31T10:43:05;95158.22;;;10.71;91.35
56668;BME280;42542;48.360;10.958;2023-10-31T10:46:12;95160.72;;;10.73;90.93
56668;BME280;42542;48.360;10.958;2023-10-31T10:49:18;95163.56;;;10.71;89.21
56668;BME280;42542;48.360;10.958;2023-10-31T10:52:43;95164.22;;;10.73;89.48
56668;BME280;42542;48.360;10.958;2023-10-31T10:55:51;95169.81;;;10.78;88.26
56668;BME280;42542;48.360;10.958;2023-10-31T10:59:01;95161.63;;;10.80;88.60
56668;BME280;42542;48.360;10.958;2023-10-31T11:02:06;95158.81;;;10.88;89.32
56668;BME280;42542;48.360;10.958;2023-10-31T11:05:08;95149.66;;;10.97;91.05
56668;BME280;42542;48.360;10.958;2023-10-31T11:08:11;95155.06;;;11.04;90.61
56668;BME280;42542;48.360;10.958;2023-10-31T11:11:13;95153.88;;;11.06;88.77
56668;BME280;42542;48.360;10.958;2023-10-31T11:14:18;95163.78;;;11.12;88.33
56668;BME280;42542;48.360;10.958;2023-10-31T11:17:24;95150.06;;;11.15;86.97
56668;BME280;42542;48.360;10.958;2023-10-31T11:20:29;95157.31;;;11.21;86.90
56668;BME280;42542;48.360;10.958;2023-10-31T11:23:32;95156.97;;;11.31;88.12
56668;BME280;42542;48.360;10.958;2023-10-31T11:26:34;95162.19;;;11.39;88.49
56668;BME280;42542;48.360;10.958;2023-10-31T11:29:36;95170.47;;;11.44;86.59
56668;BME280;42542;48.360;10.958;2023-10-31T11:32:47;95165.75;;;11.46;86.99
56668;BME280;42542;48.360;10.958;2023-10-31T11:35:50;95161.50;;;11.52;85.43
56668;BME280;42542;48.360;10.958;2023-10-31T11:39:10;95166.19;;;11.50;82.91
56668;BME280;42542;48.360;10.958;2023-10-31T11:42:17;95157.78;;;11.53;84.74
56668;BME280;42542;48.360;10.958;2023-10-31T11:45:40;95168.09;;;11.56;85.26
56668;BME280;42542;48.360;10.958;2023-10-31T11:48:49;95170.13;;;11.54;83.70
56668;BME280;42542;48.360;10.958;2023-10-31T11:51:52;95171.78;;;11.55;83.41
56668;BME280;42542;48.360;10.958;2023-10-31T11:54:55;95166.44;;;11.55;83.04
56668;BME280;42542;48.360;10.958;2023-10-31T11:57:57;95168.75;;;11.58;82.94
56668;BME280;42542;48.360;10.958;2023-10-31T12:01:06;95164.84;;;11.60;83.32
56668;BME280;42542;48.360;10.958;2023-10-31T12:04:07;95162.25;;;11.67;83.54
56668;BME280;42542;48.360;10.958;2023-10-31T12:07:10;95167.81;;;11.72;83.55
56668;BME280;42542;48.360;10.958;2023-10-31T12:10:12;95164.97;;;11.73;82.60
56668;BME280;42542;48.360;10.958;2023-10-31T12:13:15;95154.63;;;11.70;80.75
56668;BME280;42542;48.360;10.958;2023-10-31T12:16:17;95156.28;;;11.71;80.38
56668;BME280;42542;48.360;10.958;2023-10-31T12:19:20;95159.78;;;11.72;80.59
56668;BME280;42542;48.360;10.958;2023-10-31T12:22:22;95162.00;;;11.68;80.67
56668;BME280;42542;48.360;10.958;2023-10-31T12:25:26;95160.34;;;11.67;82.02
56668;BME280;42542;48.360;10.958;2023-10-31T12:28:28;95155.00;;;11.67;83.78
56668;BME280;42542;48.360;10.958;2023-10-31T12:31:30;95150.69;;;11.66;85.11
56668;BME280;42542;48.360;10.958;2023-10-31T12:34:32;95155.41;;;11.64;84.96
56668;BME280;42542;48.360;10.958;2023-10-31T12:37:37;95152.97;;;11.69;85.66
56668;BME280;42542;48.360;10.958;2023-10-31T12:40:43;95169.03;;;11.69;85.42
56668;BME280;42542;48.360;10.958;2023-10-31T12:43:46;95164.13;;;11.73;86.41
56668;BME280;42542;48.360;10.958;2023-10-31T12:46:48;95156.38;;;11.78;86.88
56668;BME280;42542;48.360;10.958;2023-10-31T12:53:23;95165.41;;;11.77;87.14
56668;BME280;42542;48.360;10.958;2023-10-31T12:56:37;95159.59;;;11.73;87.74
56668;BME280;42542;48.360;10.958;2023-10-31T12:59:41;95168.66;;;11.72;87.96
56668;BME280;42542;48.360;10.958;2023-10-31T13:02:42;95157.50;;;11.69;88.18
56668;BME280;42542;48.360;10.958;2023-10-31T13:05:45;95173.38;;;11.70;88.73
56668;BME280;42542;48.360;10.958;2023-10-31T13:08:48;95173.19;;;11.72;88.51
56668;BME280;42542;48.360;10.958;2023-10-31T13:11:49;95178.16;;;11.75;89.17
56668;BME280;42542;48.360;10.958;2023-10-31T13:14:52;95175.75;;;11.80;89.17
56668;BME280;42542;48.360;10.958;2023-10-31T13:17:54;95176.94;;;11.78;89.04
56668;BME280;42542;48.360;10.958;2023-10-31T13:20:56;95189.50;;;11.77;89.16
56668;BME280;42542;48.360;10.958;2023-10-31T13:23:58;95185.81;;;11.78;89.59
56668;BME280;42542;48.360;10.958;2023-10-31T13:27:00;95192.38;;;11.76;89.31
56668;BME280;42542;48.360;10.958;2023-10-31T13:30:05;95195.06;;;11.76;89.61
56668;BME280;42542;48.360;10.958;2023-10-31T13:33:06;95191.53;;;11.75;90.24
56668;BME280;42542;48.360;10.958;2023-10-31T13:36:09;95196.53;;;11.78;90.24
56668;BME280;42542;48.360;10.958;2023-10-31T13:39:13;95192.59;;;11.74;89.95
56668;BME280;42542;48.360;10.958;2023-10-31T13:42:15;95195.28;;;11.74;90.07
56668;BME280;42542;48.360;10.958;2023-10-31T13:45:17;95203.09;;;11.76;89.89
56668;BME280;42542;48.360;10.958;2023-10-31T13:48:18;95209.63;;;11.73;90.24
56668;BME280;42542;48.360;10.958;2023-10-31T13:51:20;95212.97;;;11.75;90.47
56668;BME280;42542;48.360;10.958;2023-10-31T13:54:23;95209.63;;;11.73;90.68
56668;BME280;42542;48.360;10.958;2023-10-31T13:57:26;95223.66;;;11.75;90.08
56668;BME280;42542;48.360;10.958;2023-10-31T14:00:27;95218.50;;;11.73;89.61
56668;BME280;42542;48.360;10.958;2023-10-31T14:03:31;95225.34;;;11.76;89.17
56668;BME280;42542;48.360;10.958;2023-10-31T14:06:33;95221.81;;;11.76;88.58
56668;BME280;42542;48.360;10.958;2023-10-31T14:09:36;95227.41;;;11.74;88.53
56668;BME280;42542;48.360;10.958;2023-10-31T14:12:37;95220.53;;;11.71;89.50
56668;BME280;42542;48.360;10.958;2023-10-31T14:15:39;95236.03;;;11.76;88.96
56668;BME280;42542;48.360;10.958;2023-10-31T14:18:41;95232.75;;;11.74;89.77
56668;BME280;42542;48.360;10.958;2023-10-31T14:21:45;95250.44;;;11.75;90.23
56668;BME280;42542;48.360;10.958;2023-10-31T14:24:46;95247.56;;;11.77;90.23
56668;BME280;42542;48.360;10.958;2023-10-31T14:27:48;95246.56;;;11.78;89.51
56668;BME280;42542;48.360;10.958;2023-10-31T14:30:50;95253.56;;;11.79;89.39
56668;BME280;42542;48.360;10.958;2023-10-31T14:33:54;95264.16;;;11.87;90.20
56668;BME280;42542;48.360;10.958;2023-10-31T14:36:55;95262.72;;;11.91;89.74
56668;BME280;42542;48.360;10.958;2023-10-31T14:39:58;95266.88;;;11.93;89.24
56668;BME280;42542;48.360;10.958;2023-10-31T14:43:00;95264.41;;;11.92;89.68
56668;BME280;42542;48.360;10.958;2023-10-31T14:46:02;95266.44;;;11.90;88.52
56668;BME280;42542;48.360;10.958;2023-10-31T14:49:05;95270.97;;;11.89;89.11
56668;BME280;42542;48.360;10.958;2023-10-31T14:52:07;95271.16;;;11.88;89.02
56668;BME280;42542;48.360;10.958;2023-10-31T14:55:09;95281.66;;;11.89;89.26
56668;BME280;42542;48.360;10.958;2023-10-31T14:58:12;95279.41;;;11.86;89.27
56668;BME280;42542;48.360;10.958;2023-10-31T15:01:14;95288.63;;;11.84;89.67
56668;BME280;42542;48.360;10.958;2023-10-31T15:04:18;95289.66;;;11.83;89.64
56668;BME280;42542;48.360;10.958;2023-10-31T15:07:19;95298.13;;;11.86;90.08
56668;BME280;42542;48.360;10.958;2023-10-31T15:10:21;95296.84;;;11.82;89.83
56668;BME280;42542;48.360;10.958;2023-10-31T15:13:24;95303.88;;;11.83;89.81
56668;BME280;42542;48.360;10.958;2023-10-31T15:16:27;95300.75;;;11.80;89.25
56668;BME280;42542;48.360;10.958;2023-10-31T15:19:29;95299.09;;;11.79;89.49
56668;BME280;42542;48.360;10.958;2023-10-31T15:22:31;95292.44;;;11.74;90.02
56668;BME280;42542;48.360;10.958;2023-10-31T15:25:32;95298.34;;;11.70;89.83
56668;BME280;42542;48.360;10.958;2023-10-31T15:28:35;95302.44;;;11.66;90.01
56668;BME280;42542;48.360;10.958;2023-10-31T15:31:43;95309.00;;;11.63;89.97
56668;BME280;42542;48.360;10.958;2023-10-31T15:34:46;95311.88;;;11.62;89.72
56668;BME280;42542;48.360;10.958;2023-10-31T15:37:48;95312.88;;;11.61;89.65
56668;BME280;42542;48.360;10.958;2023-10-31T15:40:50;95309.78;;;11.57;89.68
56668;BME280;42542;48.360;10.958;2023-10-31T15:43:58;95318.34;;;11.53;89.61
56668;BME280;42542;48.360;10.958;2023-10-31T15:47:00;95319.94;;;11.47;89.78
56668;BME280;42542;48.360;10.958;2023-10-31T15:50:02;95317.00;;;11.42;90.60
56668;BME280;42542;48.360;10.958;2023-10-31T15:53:05;95326.06;;;11.41;91.08
56668;BME280;42542;48.360;10.958;2023-10-31T15:56:07;95327.63;;;11.35;91.34
56668;BME280;42542;48.360;10.958;2023-10-31T15:59:12;95331.50;;;11.33;91.82